MUBY/BYM METAR and TAF weather

Enter ICAO airport designator
Station Type Date Time Source
MUBY METAR 2020/11/19 19:50 UTC NOAA

MUBY 191950Z 08015KT 060V130 9000 BKN020 27/23 Q1015


Station Type Date Time Source
MUBY Decoded METAR 2020/11/19 19:50 UTC NOAA

Bayamo , Cuba (MUBY) 20-24N 076-37W
Nov 19, 2020 - 02:50 PM EST / 2020.11.19 1950 UTC
Wind: from the E (080 degrees) at 17 MPH (15 KT) (direction variable):0
Visibility: 5 mile(s):0
Sky conditions: mostly cloudy
Temperature: 80 F (27 C)
Dew Point: 73 F (23 C)
Relative Humidity: 78%
Pressure (altimeter): 29.97 in. Hg (1015 hPa)
ob: MUBY 191950Z 08015KT 060V130 9000 BKN020 27/23 Q1015
cycle: 20

Station Type Date Time Source
MUBY TAF 2007/09/26 19:15 UTC NOAA

MUBY 261915Z 31008KT 270V030 1000 RA OVC020TCU XX/XX Q1013
RMK TCU OVER AD

Example: see airport list